Time;durP1;ratioP1;P1;durP2;ratioP2;P2;SDS_P1;SDS_P2;PMS_P1;PMS_P2;Temp;Humidity;BMP_temperature;BMP_pressure;BME280_temperature;BME280_humidity;BME280_pressure;Samples;Min_cycle;Max_cycle;Signal;HPM_P1;HPM_P2
2023/01/20 00:02:04;;;;;;;10.57;3.22;;;;;;;10.02;100.00;99739.78;5008753;28;20056;-79
2023/01/20 00:04:29;;;;;;;9.30;4.85;;;;;;;9.56;100.00;99646.72;5011204;28;20037;-80
2023/01/20 00:06:55;;;;;;;20.98;3.38;;;;;;;9.56;100.00;99638.88;5014136;28;20041;-79
2023/01/20 00:09:21;;;;;;;9.32;3.30;;;;;;;10.02;100.00;99758.13;5010712;28;20050;-78
2023/01/20 00:11:46;;;;;;;17.13;4.22;;;;;;;9.32;100.00;99637.31;5008262;28;20053;-77
2023/01/20 00:14:12;;;;;;;10.77;3.97;;;;;;;9.29;100.00;99651.31;5013309;28;20560;-78
2023/01/20 00:16:38;;;;;;;9.15;4.28;;;;;;;10.05;100.00;99742.38;5004586;28;20041;-80
2023/01/20 00:19:03;;;;;;;19.83;9.90;;;;;;;9.44;100.00;99637.22;5005566;28;20076;-80
2023/01/20 00:21:28;;;;;;;15.80;5.95;;;;;;;9.50;100.00;99658.13;5002310;28;20116;-76
2023/01/20 00:23:54;;;;;;;14.75;6.15;;;;;;;9.83;100.00;99724.22;5011331;28;20050;-79
2023/01/20 00:26:23;;;;;;;7.50;4.35;;;;;;;9.49;100.00;99741.94;5007778;28;20506;-78
2023/01/20 00:28:52;;;;;;;11.77;5.72;;;;;;;9.49;100.00;99728.84;5003715;28;20053;-79
2023/01/20 00:31:22;;;;;;;9.65;4.13;;;;;;;9.94;100.00;99748.56;5012467;28;20116;-79
2023/01/20 00:33:49;;;;;;;9.57;3.40;;;;;;;9.86;100.00;99744.28;5007468;28;20042;-79
2023/01/20 00:36:16;;;;;;;13.98;4.75;;;;;;;9.22;100.00;99612.06;5011566;28;20072;-79
2023/01/20 00:38:41;;;;;;;16.05;5.03;;;;;;;8.93;100.00;99618.38;5008070;28;20092;-78
2023/01/20 00:41:08;;;;;;;13.60;4.45;;;;;;;9.73;100.00;99719.91;5008425;28;20491;-78
2023/01/20 00:43:34;;;;;;;13.35;6.55;;;;;;;9.96;100.00;99737.22;5007944;28;20057;-79
2023/01/20 00:45:59;;;;;;;11.95;4.88;;;;;;;9.38;100.00;99650.34;5001740;28;20081;-79
2023/01/20 00:48:25;;;;;;;11.10;5.40;;;;;;;9.30;100.00;99688.81;5009224;28;20112;-78
2023/01/20 00:50:50;;;;;;;7.13;3.42;;;;;;;9.30;100.00;99699.28;5008104;28;20897;-79
2023/01/20 00:53:16;;;;;;;9.20;5.03;;;;;;;9.60;100.00;99713.03;5011073;28;20050;-79
2023/01/20 00:55:42;;;;;;;16.77;5.18;;;;;;;9.81;100.00;99714.63;5010380;28;20583;-79
2023/01/20 00:58:07;;;;;;;11.68;4.38;;;;;;;9.55;100.00;99697.34;5005351;28;20022;-79
2023/01/20 01:00:33;;;;;;;10.05;5.43;;;;;;;9.07;100.00;99715.13;5008082;28;20129;-80
2023/01/20 01:02:58;;;;;;;13.48;5.03;;;;;;;9.48;100.00;99711.38;5008156;28;20046;-78
2023/01/20 01:05:24;;;;;;;13.60;4.85;;;;;;;9.50;100.00;99694.78;5004174;28;20494;-80
2023/01/20 01:07:49;;;;;;;11.07;6.30;;;;;;;8.86;100.00;99560.00;5005414;28;20657;-79
2023/01/20 01:10:15;;;;;;;13.95;6.43;;;;;;;9.15;100.00;99598.16;5000775;28;20046;-78
2023/01/20 01:12:41;;;;;;;14.63;7.07;;;;;;;9.08;100.00;99586.88;5004470;28;20053;-79
2023/01/20 01:15:07;;;;;;;14.30;6.72;;;;;;;9.82;100.00;99711.13;5004257;28;20506;-78
2023/01/20 01:17:32;;;;;;;13.20;6.13;;;;;;;9.69;100.00;99708.63;5014246;28;20054;-77
2023/01/20 01:19:58;;;;;;;8.48;6.30;;;;;;;9.57;100.00;99665.91;5012360;28;20095;-78
2023/01/20 01:22:23;;;;;;;13.27;7.30;;;;;;;9.79;100.00;99722.50;5004699;28;20026;-79
2023/01/20 01:24:49;;;;;;;11.82;6.43;;;;;;;9.16;100.00;99599.91;5002640;28;20045;-77
2023/01/20 01:27:14;;;;;;;23.10;7.03;;;;;;;9.67;100.00;99710.38;5010071;28;20092;-79
2023/01/20 01:29:40;;;;;;;9.13;6.22;;;;;;;9.55;100.00;99679.00;5002037;28;20058;-82
2023/01/20 01:32:06;;;;;;;18.67;7.07;;;;;;;9.23;100.00;99598.13;5001717;28;20447;-83
2023/01/20 01:34:32;;;;;;;8.52;5.18;;;;;;;9.83;100.00;99713.75;5006936;28;20029;-77
2023/01/20 01:36:58;;;;;;;13.90;7.93;;;;;;;9.82;100.00;99712.00;5011873;28;20033;-81
2023/01/20 01:39:24;;;;;;;11.88;5.78;;;;;;;8.95;100.00;99585.22;5008959;28;20057;-81
2023/01/20 01:41:49;;;;;;;13.32;6.72;;;;;;;9.19;100.00;99626.06;5005524;28;20037;-80
2023/01/20 01:44:15;;;;;;;10.82;6.45;;;;;;;9.54;100.00;99698.25;5007509;28;20678;-79
2023/01/20 01:46:41;;;;;;;12.48;6.40;;;;;;;9.50;100.00;99713.13;4998767;28;20030;-81
2023/01/20 01:49:16;;;;;;;14.30;7.88;;;;;;;9.18;100.00;99708.09;5005616;28;20068;-79
2023/01/20 01:51:49;;;;;;;12.45;7.50;;;;;;;8.59;100.00;99604.59;5000779;28;20077;-79
2023/01/20 01:54:19;;;;;;;22.73;9.40;;;;;;;9.16;100.00;99686.28;5002056;28;20042;-79
2023/01/20 01:56:47;;;;;;;18.95;12.23;;;;;;;8.95;100.00;99702.97;5009977;28;20095;-81
2023/01/20 01:59:14;;;;;;;21.20;8.82;;;;;;;8.12;100.00;99564.69;5006564;28;20076;-78
2023/01/20 02:01:44;;;;;;;13.13;6.63;;;;;;;8.88;100.00;99665.50;5008278;28;20102;-79
2023/01/20 02:04:15;;;;;;;11.55;7.05;;;;;;;8.97;100.00;99679.44;5007965;28;20038;-80
2023/01/20 02:06:44;;;;;;;14.20;7.47;;;;;;;8.55;100.00;99548.88;4996069;28;20752;-79
2023/01/20 02:09:11;;;;;;;16.38;7.20;;;;;;;9.33;100.00;99662.59;5000857;28;20040;-79
2023/01/20 02:11:42;;;;;;;17.05;7.60;;;;;;;9.34;100.00;99664.34;5008303;28;20054;-80
2023/01/20 02:14:08;;;;;;;30.02;12.13;;;;;;;8.38;100.00;99598.59;5007135;28;20107;-79
2023/01/20 02:16:45;;;;;;;34.13;16.40;;;;;;;8.60;100.00;99669.13;5003639;28;20531;-79
2023/01/20 02:19:42;;;;;;;127.00;49.72;;;;;;;7.70;100.00;99509.16;5009946;28;20115;-78
2023/01/20 02:22:26;;;;;;;102.05;41.72;;;;;;;8.16;100.00;99623.06;5002709;28;20121;-80
2023/01/20 02:25:10;;;;;;;55.20;24.80;;;;;;;8.14;100.00;99622.19;5008483;28;20049;-81
2023/01/20 02:27:54;;;;;;;;;;;;;;;7.96;100.00;99596.97;5009576;28;20161;-79
2023/01/20 02:30:39;;;;;;;76.85;30.48;;;;;;;7.79;100.00;99544.78;5004123;28;20398;-79
2023/01/20 02:33:17;;;;;;;73.05;29.30;;;;;;;8.07;100.00;99587.38;5006963;28;20129;-79
2023/01/20 02:35:50;;;;;;;39.53;16.60;;;;;;;7.07;100.00;99404.03;5012049;28;20041;-79
2023/01/20 02:38:29;;;;;;;28.73;14.40;;;;;;;7.74;100.00;99461.25;5005919;28;20119;-82
2023/01/20 02:41:25;;;;;;;24.05;11.30;;;;;;;8.10;100.00;99539.44;5004195;28;20061;-81
2023/01/20 02:44:05;;;;;;;20.42;12.63;;;;;;;7.89;100.00;99489.06;5004539;28;20261;-83
2023/01/20 02:47:03;;;;;;;26.33;13.63;;;;;;;8.09;100.00;99566.47;5004526;28;20127;-81
2023/01/20 02:49:38;;;;;;;21.60;13.13;;;;;;;8.24;100.00;99556.84;5002204;28;20049;-83
2023/01/20 02:52:15;;;;;;;34.92;12.50;;;;;;;7.47;100.00;99427.41;5000366;28;20029;-82
2023/01/20 02:54:47;;;;;;;21.35;13.30;;;;;;;8.41;100.00;99572.47;5003218;28;20054;-83
2023/01/20 02:57:17;;;;;;;21.90;13.55;;;;;;;8.16;100.00;99542.91;5012699;28;20041;-80
2023/01/20 02:59:49;;;;;;;25.67;13.55;;;;;;;8.18;100.00;99504.59;5012763;28;20763;-82
2023/01/20 03:02:19;;;;;;;18.77;12.23;;;;;;;8.55;100.00;99532.31;5009719;28;20058;-79
2023/01/20 03:04:54;;;;;;;20.55;11.57;;;;;;;8.44;100.00;99532.38;5003241;28;20026;-82
2023/01/20 03:07:24;;;;;;;20.38;12.00;;;;;;;8.18;100.00;99491.53;5010958;28;20104;-81
2023/01/20 03:09:54;;;;;;;34.10;12.57;;;;;;;8.56;100.00;99531.41;5008324;28;20397;-82
2023/01/20 03:12:32;;;;;;;21.75;12.15;;;;;;;8.63;100.00;99547.06;5010113;28;20046;-83
2023/01/20 03:14:59;;;;;;;25.90;12.65;;;;;;;8.56;100.00;99519.22;5009925;28;20052;-79
2023/01/20 03:17:24;;;;;;;22.50;12.55;;;;;;;8.48;100.00;99507.94;5013157;28;20053;-81
2023/01/20 03:19:50;;;;;;;24.25;12.85;;;;;;;8.06;100.00;99430.63;5001551;28;20394;-80
2023/01/20 03:22:16;;;;;;;23.50;13.98;;;;;;;8.61;100.00;99529.63;5013707;28;20112;-79
2023/01/20 03:24:44;;;;;;;24.23;14.32;;;;;;;8.03;100.00;99415.84;5000709;28;20078;-80
2023/01/20 03:27:10;;;;;;;21.40;12.02;;;;;;;8.04;100.00;99433.25;5009982;28;20145;-79
2023/01/20 03:29:36;;;;;;;21.17;11.60;;;;;;;8.56;100.00;99490.44;5009755;28;20546;-80
2023/01/20 03:32:04;;;;;;;19.55;11.43;;;;;;;8.84;100.00;99543.44;5006216;28;20054;-79
2023/01/20 03:34:33;;;;;;;27.30;13.07;;;;;;;8.78;100.00;99538.25;5007315;28;20091;-80
2023/01/20 03:37:01;;;;;;;25.77;12.85;;;;;;;8.70;100.00;99520.88;5011719;28;20038;-76
2023/01/20 03:39:27;;;;;;;22.23;11.98;;;;;;;8.78;100.00;99519.94;5007659;28;20053;-79
2023/01/20 03:42:01;;;;;;;26.63;11.50;;;;;;;8.98;100.00;99538.09;5008855;28;20049;-79
2023/01/20 03:44:49;;;;;;;32.05;13.32;;;;;;;9.06;100.00;99554.63;5002003;28;20125;-80
2023/01/20 03:47:45;;;;;;;18.92;11.30;;;;;;;9.03;100.00;99553.75;5004205;28;20056;-79
2023/01/20 03:50:43;;;;;;;18.10;12.57;;;;;;;8.87;100.00;99474.53;5007673;28;20046;-79
2023/01/20 03:53:17;;;;;;;19.77;11.57;;;;;;;9.17;100.00;99541.44;5004595;28;20120;-78
2023/01/20 03:55:54;;;;;;;20.17;11.70;;;;;;;8.54;100.00;99421.59;5009159;28;20044;-78
2023/01/20 03:58:29;;;;;;;23.42;10.20;;;;;;;8.24;100.00;99417.44;5005170;28;20084;-78
2023/01/20 04:00:56;;;;;;;12.82;9.05;;;;;;;8.43;100.00;99398.19;5006303;28;20045;-79
2023/01/20 04:03:30;;;;;;;26.63;10.95;;;;;;;9.06;100.00;99494.44;5007105;28;20077;-78
2023/01/20 04:06:02;;;;;;;18.52;9.52;;;;;;;8.59;100.00;99398.94;5006918;28;20119;-78
2023/01/20 04:08:32;;;;;;;23.83;9.50;;;;;;;9.09;100.00;99481.31;5005434;28;20050;-79
2023/01/20 04:11:02;;;;;;;34.30;9.90;;;;;;;9.36;100.00;99508.09;5010187;28;20049;-79
2023/01/20 04:13:28;;;;;;;19.80;8.30;;;;;;;9.19;100.00;99455.06;5004947;28;20141;-80
2023/01/20 04:15:55;;;;;;;19.25;9.23;;;;;;;9.41;100.00;99471.41;5008923;28;20129;-79
2023/01/20 04:18:22;;;;;;;19.08;7.93;;;;;;;9.36;100.00;99454.88;5005845;28;20046;-78
2023/01/20 04:20:55;;;;;;;17.58;7.68;;;;;;;8.80;100.00;99355.13;5005839;28;20092;-80
2023/01/20 04:23:59;;;;;;;14.47;7.93;;;;;;;9.64;100.00;99495.59;5005915;28;20061;-81
2023/01/20 04:26:24;;;;;;;15.48;7.28;;;;;;;9.70;100.00;99476.34;4987936;28;20182;-81
2023/01/20 04:28:50;;;;;;;19.17;8.52;;;;;;;9.73;100.00;99461.44;5006543;28;20470;-80
2023/01/20 04:31:16;;;;;;;19.35;9.32;;;;;;;9.32;100.00;99374.63;5011200;28;20477;-80
2023/01/20 04:33:42;;;;;;;21.17;9.70;;;;;;;9.37;100.00;99370.25;5007484;28;20050;-79
2023/01/20 04:36:07;;;;;;;21.33;9.60;;;;;;;9.89;100.00;99482.22;5005023;28;20062;-79
2023/01/20 04:38:33;;;;;;;18.27;9.90;;;;;;;9.87;100.00;99463.03;5008431;28;20173;-78
2023/01/20 04:40:58;;;;;;;19.45;10.00;;;;;;;10.09;100.00;99485.47;5005946;28;20065;-80
2023/01/20 04:43:23;;;;;;;16.00;9.50;;;;;;;10.34;100.00;99514.00;5003297;28;20443;-80
2023/01/20 04:45:49;;;;;;;22.13;11.90;;;;;;;10.36;100.00;99525.34;5005006;28;20072;-79
2023/01/20 04:48:14;;;;;;;18.92;10.82;;;;;;;9.70;100.00;99395.13;5005130;28;20486;-78
2023/01/20 04:50:40;;;;;;;14.68;10.15;;;;;;;9.80;100.00;99390.63;5007608;28;20862;-79
2023/01/20 04:53:09;;;;;;;23.05;9.75;;;;;;;10.53;100.00;99507.59;5007668;28;20081;-78
2023/01/20 04:55:34;;;;;;;15.20;10.05;;;;;;;10.48;100.00;99487.56;5009622;28;20569;-79
2023/01/20 04:58:00;;;;;;;18.33;10.40;;;;;;;10.66;100.00;99525.81;5003776;28;20026;-79
2023/01/20 05:00:25;;;;;;;13.13;8.80;;;;;;;9.92;100.00;99388.69;5010042;28;20477;-80
2023/01/20 05:02:51;;;;;;;10.30;7.88;;;;;;;10.73;100.00;99523.06;5008435;28;20046;-78
2023/01/20 05:05:16;;;;;;;13.02;8.48;;;;;;;10.15;100.00;99417.22;5001424;28;20066;-80
2023/01/20 05:07:42;;;;;;;19.00;7.78;;;;;;;10.29;100.00;99429.28;5008836;28;20025;-81
2023/01/20 05:10:08;;;;;;;17.10;7.78;;;;;;;10.65;100.00;99482.06;5008101;28;20037;-80
2023/01/20 05:12:33;;;;;;;19.60;6.78;;;;;;;10.18;100.00;99405.81;5011037;28;20060;-80
2023/01/20 05:14:59;;;;;;;16.42;7.07;;;;;;;10.67;100.00;99506.53;5008755;28;20573;-77
2023/01/20 05:17:24;;;;;;;16.52;8.60;;;;;;;10.21;100.00;99415.38;5021921;28;20046;-78
2023/01/20 05:19:50;;;;;;;20.52;8.60;;;;;;;10.14;100.00;99407.63;5007495;28;20037;-79
2023/01/20 05:22:15;;;;;;;23.52;7.38;;;;;;;10.25;100.00;99428.41;5011048;28;20711;-77
2023/01/20 05:24:41;;;;;;;16.38;6.60;;;;;;;10.79;100.00;99508.97;5003744;28;20049;-77
2023/01/20 05:27:06;;;;;;;20.35;6.82;;;;;;;10.85;100.00;99522.00;5004881;28;20450;-80
2023/01/20 05:29:32;;;;;;;15.48;7.35;;;;;;;10.64;100.00;99477.72;5007050;28;20064;-80
2023/01/20 05:31:57;;;;;;;23.73;10.45;;;;;;;10.22;100.00;99383.06;5013959;28;20033;-79
2023/01/20 05:34:23;;;;;;;17.58;9.90;;;;;;;10.23;100.00;99400.50;5009716;28;20132;-79
2023/01/20 05:36:52;;;;;;;13.35;10.82;;;;;;;10.90;100.00;99529.81;5003780;28;20038;-79
2023/01/20 05:39:18;;;;;;;17.73;10.55;;;;;;;10.85;100.00;99521.13;5008957;28;20050;-79
2023/01/20 05:41:45;;;;;;;19.15;10.68;;;;;;;10.02;100.00;99363.25;5010169;28;20091;-81
2023/01/20 05:44:11;;;;;;;17.70;11.55;;;;;;;10.08;100.00;99363.16;5010671;28;20045;-79
2023/01/20 05:46:36;;;;;;;18.25;12.05;;;;;;;10.52;100.00;99452.56;5007988;28;20394;-77
2023/01/20 05:49:02;;;;;;;16.40;11.43;;;;;;;10.39;100.00;99443.13;5008837;28;20021;-77
2023/01/20 05:51:28;;;;;;;24.48;12.90;;;;;;;10.13;100.00;99387.53;5002903;28;20734;-77
2023/01/20 05:53:53;;;;;;;24.58;12.32;;;;;;;10.97;100.00;99544.56;5010752;28;20037;-79
2023/01/20 05:56:18;;;;;;;20.90;9.50;;;;;;;10.38;100.00;99431.78;5010405;28;20562;-79
2023/01/20 05:58:44;;;;;;;14.43;10.10;;;;;;;9.87;100.00;99330.25;5009281;28;20412;-78
2023/01/20 06:01:12;;;;;;;17.35;10.93;;;;;;;10.82;100.00;99482.69;5003790;28;20068;-78
2023/01/20 06:03:38;;;;;;;25.92;10.73;;;;;;;10.92;100.00;99509.66;4999298;28;20042;-78
2023/01/20 06:06:06;;;;;;;19.58;9.18;;;;;;;10.89;100.00;99492.19;5010261;28;20046;-79
2023/01/20 06:08:32;;;;;;;15.52;9.18;;;;;;;10.16;100.00;99381.41;5006297;28;20107;-79
2023/01/20 06:10:58;;;;;;;31.17;8.90;;;;;;;10.95;100.00;99522.72;5010427;28;20141;-78
2023/01/20 06:13:23;;;;;;;25.42;9.40;;;;;;;10.82;100.00;99508.06;5007410;28;20628;-78
2023/01/20 06:15:53;;;;;;;19.98;9.65;;;;;;;10.37;100.00;99411.66;5008658;28;20030;-78
2023/01/20 06:18:20;;;;;;;14.38;9.15;;;;;;;10.72;100.00;99463.63;5001003;28;20531;-79
2023/01/20 06:20:46;;;;;;;18.70;9.65;;;;;;;11.06;100.00;99512.06;5008627;28;20042;-78
2023/01/20 06:23:11;;;;;;;15.50;8.82;;;;;;;10.34;100.00;99380.25;5009500;28;20053;-78
2023/01/20 06:25:37;;;;;;;19.58;10.32;;;;;;;10.45;100.00;99404.56;5004733;28;20037;-79
2023/01/20 06:28:02;;;;;;;20.75;8.32;;;;;;;10.46;100.00;99397.56;5009344;28;20053;-80
2023/01/20 06:30:28;;;;;;;21.52;9.52;;;;;;;10.72;100.00;99441.72;5005620;28;20429;-80
2023/01/20 06:32:54;;;;;;;20.08;9.80;;;;;;;10.53;100.00;99412.31;5006192;28;20220;-79
2023/01/20 06:35:20;;;;;;;24.92;10.25;;;;;;;10.99;100.00;99485.91;5009833;28;20061;-81
2023/01/20 06:37:45;;;;;;;26.40;10.75;;;;;;;11.32;100.00;99538.72;5005683;28;20050;-82
2023/01/20 06:40:12;;;;;;;21.13;11.18;;;;;;;11.35;100.00;99553.56;5014443;28;20046;-82
2023/01/20 06:42:37;;;;;;;20.42;8.73;;;;;;;11.43;100.00;99550.84;5006017;28;20494;-80
2023/01/20 06:45:03;;;;;;;22.83;11.05;;;;;;;11.28;100.00;99529.16;5005966;28;20057;-78
2023/01/20 06:47:29;;;;;;;17.10;9.57;;;;;;;10.99;100.00;99478.03;4991008;28;20034;-77
2023/01/20 06:49:54;;;;;;;22.55;10.95;;;;;;;11.38;100.00;99546.50;5007912;28;20050;-75
2023/01/20 06:52:19;;;;;;;15.40;10.13;;;;;;;10.88;100.00;99464.19;4998968;28;20030;-76
2023/01/20 06:54:45;;;;;;;16.77;10.98;;;;;;;11.04;100.00;99490.22;4998714;28;20053;-79
2023/01/20 06:57:10;;;;;;;15.20;8.77;;;;;;;11.53;100.00;99566.38;5002605;28;20053;-78
2023/01/20 06:59:36;;;;;;;20.20;9.82;;;;;;;10.86;100.00;99450.22;5004587;28;20131;-75
2023/01/20 07:02:01;;;;;;;23.02;11.13;;;;;;;10.87;100.00;99462.47;4995850;28;20054;-78
2023/01/20 07:04:27;;;;;;;19.38;10.45;;;;;;;11.46;100.00;99559.50;5000989;28;20080;-77
2023/01/20 07:06:52;;;;;;;31.40;10.32;;;;;;;11.37;100.00;99542.13;4999394;28;20049;-78
2023/01/20 07:09:18;;;;;;;20.20;9.02;;;;;;;11.49;100.00;99569.94;5002764;28;20137;-78
2023/01/20 07:11:43;;;;;;;14.18;8.98;;;;;;;11.69;100.00;99587.16;4995566;28;20058;-79
2023/01/20 07:14:09;;;;;;;18.08;9.52;;;;;;;10.93;100.00;99465.03;4999326;28;20072;-77
2023/01/20 07:16:35;;;;;;;15.63;9.20;;;;;;;11.74;100.00;99582.66;4999332;28;20493;-75
2023/01/20 07:19:00;;;;;;;24.17;9.40;;;;;;;11.42;100.00;99507.91;5003134;28;20042;-76
2023/01/20 07:21:26;;;;;;;21.48;8.60;;;;;;;11.20;100.00;99465.41;4995682;28;20068;-77
2023/01/20 07:23:51;;;;;;;21.05;9.90;;;;;;;11.46;100.00;99512.22;5013014;28;20092;-80
2023/01/20 07:26:19;;;;;;;23.58;10.63;;;;;;;11.12;100.00;99444.56;4998537;28;20129;-79
2023/01/20 07:28:46;;;;;;;19.83;10.75;;;;;;;11.92;100.00;99560.47;4999094;28;20592;-79
2023/01/20 07:31:17;;;;;;;15.80;10.18;;;;;;;11.98;100.00;99563.81;5008149;28;20046;-78
2023/01/20 07:33:42;;;;;;;25.92;10.35;;;;;;;12.02;100.00;99576.03;5005351;28;20054;-77
2023/01/20 07:36:09;;;;;;;28.08;10.60;;;;;;;11.51;100.00;99486.72;5006235;28;20060;-76
2023/01/20 07:38:35;;;;;;;14.63;9.02;;;;;;;11.56;100.00;99479.63;5003819;28;20521;-77
2023/01/20 07:41:04;;;;;;;21.90;11.35;;;;;;;11.54;100.00;99481.44;5002729;28;20041;-75
2023/01/20 07:43:30;;;;;;;19.58;10.80;;;;;;;11.48;100.00;99468.41;4999601;28;20046;-74
2023/01/20 07:45:58;;;;;;;19.25;10.80;;;;;;;11.63;100.00;99490.88;4999925;28;20149;-76
2023/01/20 07:48:24;;;;;;;19.55;12.32;;;;;;;11.48;100.00;99467.53;4999461;28;20073;-76
2023/01/20 07:51:01;;;;;;;20.05;11.45;;;;;;;11.62;100.00;99494.41;5012046;28;20121;-77
2023/01/20 07:53:47;;;;;;;18.15;13.18;;;;;;;11.03;100.00;99394.84;5008110;28;20108;-76
2023/01/20 07:56:20;;;;;;;17.15;11.20;;;;;;;12.30;100.00;99608.81;5008513;28;20072;-77
2023/01/20 07:58:46;;;;;;;24.70;11.75;;;;;;;11.86;100.00;99521.97;5013999;28;20100;-78
2023/01/20 08:01:32;;;;;;;25.95;12.15;;;;;;;12.38;100.00;99606.88;5003130;28;20038;-76
2023/01/20 08:04:01;;;;;;;20.52;10.48;;;;;;;11.69;100.00;99501.28;5005967;28;20058;-77
2023/01/20 08:06:27;;;;;;;32.83;11.13;;;;;;;11.68;100.00;99496.91;5005652;28;20089;-77
2023/01/20 08:08:53;;;;;;;18.52;10.73;;;;;;;11.67;100.00;99489.06;5006936;28;20136;-78
2023/01/20 08:11:20;;;;;;;23.10;9.18;;;;;;;11.97;100.00;99533.19;5003149;28;20102;-77
2023/01/20 08:13:46;;;;;;;20.10;9.48;;;;;;;12.48;100.00;99610.19;5000794;28;20042;-76
2023/01/20 08:16:15;;;;;;;14.13;8.55;;;;;;;12.52;100.00;99591.66;5008863;28;20383;-78
2023/01/20 08:18:41;;;;;;;11.63;8.45;;;;;;;11.94;100.00;99495.56;5010499;28;20053;-77
2023/01/20 08:21:32;;;;;;;16.52;10.13;;;;;;;12.62;100.00;99587.09;5009777;28;20049;-76
2023/01/20 08:24:00;;;;;;;20.33;10.75;;;;;;;12.15;100.00;99517.91;5006835;28;20136;-76
2023/01/20 08:26:28;;;;;;;17.83;8.45;;;;;;;12.74;100.00;99618.41;5007168;28;20787;-77
2023/01/20 08:28:54;;;;;;;22.33;8.13;;;;;;;12.82;100.00;99626.13;5013218;28;20076;-76
2023/01/20 08:31:23;;;;;;;20.52;9.32;;;;;;;12.86;100.00;99631.31;5008677;28;20041;-76
2023/01/20 08:33:52;;;;;;;13.80;9.05;;;;;;;11.67;100.00;99428.63;5004662;28;20410;-75
2023/01/20 08:36:24;;;;;;;26.65;10.18;;;;;;;12.36;100.00;99532.38;5010147;28;20049;-76
2023/01/20 08:38:50;;;;;;;25.75;8.80;;;;;;;12.74;100.00;99594.72;5009140;28;20057;-76
2023/01/20 08:41:22;;;;;;;20.88;9.00;;;;;;;12.88;100.00;99586.53;5012398;28;20065;-75
2023/01/20 08:43:48;;;;;;;15.02;7.45;;;;;;;13.15;100.00;99605.19;5006011;28;20786;-75
2023/01/20 08:46:15;;;;;;;15.57;9.35;;;;;;;13.21;100.00;99602.44;5008193;28;20042;-76
2023/01/20 08:48:41;;;;;;;23.02;9.07;;;;;;;12.55;100.00;99496.88;5008628;28;20053;-77
2023/01/20 08:51:12;;;;;;;15.95;8.43;;;;;;;13.32;100.00;99625.91;5008923;28;20053;-77
2023/01/20 08:53:39;;;;;;;13.45;8.30;;;;;;;13.30;100.00;99645.25;5011550;28;20128;-76
2023/01/20 08:56:05;;;;;;;13.32;7.60;;;;;;;13.36;100.00;99631.06;4998353;28;20070;-77
2023/01/20 08:58:30;;;;;;;14.25;7.95;;;;;;;13.22;100.00;99614.69;5005963;28;20111;-76
2023/01/20 09:00:56;;;;;;;12.75;7.93;;;;;;;13.22;100.00;99615.56;5003618;28;20049;-76
2023/01/20 09:03:22;;;;;;;10.93;7.57;;;;;;;13.21;100.00;99603.28;5006894;28;20100;-78
2023/01/20 09:05:49;;;;;;;14.07;7.85;;;;;;;12.94;100.00;99551.25;5003419;28;20038;-76
2023/01/20 09:08:16;;;;;;;20.30;9.02;;;;;;;13.37;100.00;99634.56;5002354;28;20050;-76
2023/01/20 09:10:42;;;;;;;14.85;7.63;;;;;;;13.21;100.00;99599.81;5002086;28;20553;-76
2023/01/20 09:13:08;;;;;;;13.90;7.40;;;;;;;13.33;100.00;99628.50;5006127;28;20083;-76
2023/01/20 09:15:33;;;;;;;14.27;7.25;;;;;;;12.68;100.00;99510.63;5009537;28;20092;-77
2023/01/20 09:17:59;;;;;;;12.27;7.07;;;;;;;12.79;100.00;99516.50;5014358;28;20050;-78
2023/01/20 09:20:26;;;;;;;22.08;9.15;;;;;;;13.28;100.00;99578.56;5012569;28;20627;-78
2023/01/20 09:22:51;;;;;;;19.00;8.32;;;;;;;12.73;100.00;99494.72;4998709;28;20041;-78
2023/01/20 09:25:17;;;;;;;20.05;8.15;;;;;;;13.20;100.00;99576.97;4995729;28;20026;-79
2023/01/20 09:27:42;;;;;;;17.58;8.20;;;;;;;13.35;100.00;99597.72;5006238;28;20517;-76
2023/01/20 09:30:08;;;;;;;15.18;8.73;;;;;;;12.76;100.00;99490.25;5004750;28;20820;-76
2023/01/20 09:32:34;;;;;;;21.73;8.38;;;;;;;13.40;100.00;99585.31;5000814;28;20041;-79
2023/01/20 09:34:59;;;;;;;12.40;7.97;;;;;;;13.27;100.00;99562.75;5005971;28;20541;-79
2023/01/20 09:46:20;;;;;;;15.77;8.13;;;;;;;13.46;100.00;99555.28;5004011;28;20060;-77
2023/01/20 09:54:46;;;;;;;12.75;8.20;;;;;;;12.70;100.00;99434.25;5001650;28;20057;-79
2023/01/20 09:57:12;;;;;;;17.63;9.30;;;;;;;13.33;100.00;99535.44;5004829;28;20102;-78
2023/01/20 09:59:46;;;;;;;13.40;8.65;;;;;;;12.92;100.00;99464.41;5005941;28;20045;-78
2023/01/20 10:02:21;;;;;;;19.75;8.20;;;;;;;13.46;100.00;99550.00;5010089;28;20053;-79
2023/01/20 10:05:12;;;;;;;14.50;8.15;;;;;;;13.46;100.00;99544.72;5004794;28;20034;-73
2023/01/20 10:07:51;;;;;;;18.95;9.95;;;;;;;13.47;100.00;99542.06;5014406;28;20927;-73
2023/01/20 10:10:22;;;;;;;23.42;8.88;;;;;;;13.48;100.00;99549.06;5008657;28;20044;-74
2023/01/20 10:12:50;;;;;;;19.17;9.48;;;;;;;13.49;100.00;99542.03;5004383;28;20092;-75
2023/01/20 10:15:28;;;;;;;13.90;8.90;;;;;;;12.83;100.00;99414.59;5005166;28;20521;-73
2023/01/20 10:18:18;;;;;;;16.05;8.15;;;;;;;13.64;100.00;99541.63;4996921;28;20084;-75
2023/01/20 10:20:55;;;;;;;14.10;7.22;;;;;;;15.13;100.00;99441.28;4998650;28;20537;-75
2023/01/20 10:23:28;;;;;;;13.93;8.25;;;;;;;14.59;100.00;99526.69;4991089;28;20046;-76
2023/01/20 10:26:05;;;;;;;24.98;8.57;;;;;;;14.19;100.00;99514.59;4998912;28;20136;-76
2023/01/20 10:28:37;;;;;;;14.32;7.60;;;;;;;15.60;100.00;99478.38;5001319;28;20639;-76
2023/01/20 10:31:04;;;;;;;12.35;7.28;;;;;;;15.19;100.00;99526.50;5006189;28;20077;-75
2023/01/20 10:33:36;;;;;;;17.92;9.30;;;;;;;14.07;100.00;99460.44;5002856;28;20045;-74
2023/01/20 10:36:01;;;;;;;15.77;7.55;;;;;;;14.93;100.00;99341.56;5003532;28;20552;-75
2023/01/20 10:38:53;;;;;;;11.18;8.23;;;;;;;15.65;100.00;99378.59;5007194;28;20060;-75
2023/01/20 10:41:47;;;;;;;13.02;6.70;;;;;;;18.02;100.00;99502.25;4998472;28;20099;-75
2023/01/20 10:44:15;;;;;;;11.30;6.15;;;;;;;18.36;100.00;99532.59;4995923;28;20053;-74
2023/01/20 10:46:49;;;;;;;13.85;7.90;;;;;;;17.45;100.00;99525.94;4989791;28;20041;-75
2023/01/20 10:49:36;;;;;;;14.65;8.30;;;;;;;17.85;100.00;99521.59;5007201;28;20494;-75
2023/01/20 10:52:26;;;;;;;13.52;7.90;;;;;;;17.57;100.00;99422.91;4996968;28;20133;-76
2023/01/20 10:55:04;;;;;;;22.13;8.43;;;;;;;17.41;100.00;99528.78;5005524;28;20050;-76
2023/01/20 10:57:31;;;;;;;12.10;7.47;;;;;;;19.10;100.00;99479.41;5005564;28;20067;-74
2023/01/20 11:00:05;;;;;;;12.40;8.00;;;;;;;18.42;100.00;99504.88;5008863;28;20201;-76
2023/01/20 11:02:34;;;;;;;14.57;7.63;;;;;;;17.92;100.00;99482.38;4994579;28;20324;-74
2023/01/20 11:05:29;;;;;;;14.00;7.82;;;;;;;19.03;100.00;99503.75;5009487;28;20049;-72
2023/01/20 11:07:58;;;;;;;16.98;7.50;;;;;;;15.81;100.00;99455.63;5012133;28;20246;-74
2023/01/20 11:10:26;;;;;;;15.07;7.20;;;;;;;16.08;100.00;99400.78;5011176;28;20056;-74
2023/01/20 11:12:55;;;;;;;12.48;6.18;;;;;;;15.54;100.00;99497.09;5001868;28;21006;-74
2023/01/20 11:15:48;;;;;;;10.60;6.10;;;;;;;18.14;100.00;99471.63;4994443;28;20054;-76
2023/01/20 11:18:13;;;;;;;10.40;5.82;;;;;;;17.18;100.00;99495.28;5004405;28;20050;-76
2023/01/20 11:20:49;;;;;;;11.30;5.45;;;;;;;17.53;100.00;99377.06;5006475;28;20052;-76
2023/01/20 11:23:20;;;;;;;13.75;6.90;;;;;;;15.93;100.00;99486.06;5004861;28;20079;-75
2023/01/20 11:25:57;;;;;;;21.00;6.63;;;;;;;16.79;100.00;99377.66;5006725;28;20487;-77
2023/01/20 11:28:23;;;;;;;15.77;7.32;;;;;;;16.02;100.00;99448.66;5005029;28;20100;-74
2023/01/20 11:30:54;;;;;;;11.57;6.32;;;;;;;18.22;100.00;99423.50;5013690;28;20134;-77
2023/01/20 11:33:25;;;;;;;13.43;6.00;;;;;;;15.96;100.00;99462.13;5012702;28;20042;-75
2023/01/20 11:36:06;;;;;;;11.38;5.82;;;;;;;15.24;100.00;99441.75;4998199;28;20050;-74
2023/01/20 11:38:47;;;;;;;15.30;7.88;;;;;;;15.27;100.00;99393.22;4998318;28;20493;-76
2023/01/20 11:41:29;;;;;;;11.02;6.15;;;;;;;15.48;100.00;99432.09;5000346;28;20054;-74
2023/01/20 11:43:59;;;;;;;12.98;7.68;;;;;;;14.82;100.00;99336.66;5001435;28;20057;-75
2023/01/20 11:46:32;;;;;;;10.23;6.07;;;;;;;15.42;100.00;99424.38;5001002;28;20049;-75